• Join FlightAware (Why Join?)
  • Login
  • US Flag 
10:14AM EDT


 

Airport Tracker/Info


-or-


 

Live Flight TrackerFlight Track Log ✈ ARG1284 ✈ 05-Sep-2013 ✈ SABE / AEP - SCEL / SCL

Flight Track Log - Related Links

Times and Time Zones

All times are in EDT time to prevent confusion due to time zone crossing. See the ARG1284 flight status page for this flight to view local times or setup timezone preferences in your user account.

Time Position Orientation Groundspeed Altitude Reporting Facility
EDT Latitude Longitude Course Direction KTS MPH feet Rate Location/Type
10:47AM -34.5145 -59.1743 273° West  Level FlightAware Approximate
10:48AM -34.5102 -59.2829 273° West  Level FlightAware Approximate
10:49AM -34.5058 -59.3916 273° West  Level FlightAware Approximate
10:50AM -34.5014 -59.5002 273° West  Level FlightAware Approximate
10:51AM -34.4925 -59.6084 277° West  Level FlightAware Approximate
10:52AM -34.4833 -59.7165 270° West  Level FlightAware Approximate
10:53AM -34.4834 -59.8252 270° West  Level FlightAware Approximate
10:54AM -34.4800 -59.9335 284° West  Level FlightAware Approximate
10:55AM -34.4667 -60.0403 270° West  Level FlightAware Approximate
10:56AM -34.4667 -60.1490 270° West  Level FlightAware Approximate
10:57AM -34.4604 -60.2574 274° West  Level FlightAware Approximate
10:58AM -34.4540 -60.3659 274° West  Level FlightAware Approximate
10:59AM -34.4462 -60.4741 276° West  Level FlightAware Approximate
11:00AM -34.4360 -60.5821 277° West  Level FlightAware Approximate
11:01AM -34.4257 -60.6901 277° West  Level FlightAware Approximate
11:02AM -34.4167 -60.7981 270° West  Level FlightAware Approximate
11:03AM -34.4162 -60.9067 274° West  Level FlightAware Approximate
11:04AM -34.4092 -61.0151 274° West  Level FlightAware Approximate
11:05AM -34.4021 -61.1234 275° West  Level FlightAware Approximate
11:06AM -34.3949 -61.2316 275° West  Level FlightAware Approximate
11:07AM -34.3876 -61.3399 275° West  Level FlightAware Approximate
11:08AM -34.3803 -61.4482 275° West  Level FlightAware Approximate
11:09AM -34.3728 -61.5564 275° West  Level FlightAware Approximate
11:10AM -34.3652 -61.6646 275° West  Level FlightAware Approximate
11:11AM -34.3576 -61.7728 275° West  Level FlightAware Approximate
11:12AM -34.3498 -61.8810 275° West  Level FlightAware Approximate
11:13AM -34.3419 -61.9891 275° West  Level FlightAware Approximate
11:14AM -34.3340 -62.0972 275° West  Level FlightAware Approximate
11:15AM -34.3259 -62.2053 275° West  Level FlightAware Approximate
11:16AM -34.3178 -62.3134 275° West  Level FlightAware Approximate
11:17AM -34.3095 -62.4215 275° West  Level FlightAware Approximate
11:18AM -34.3012 -62.5295 275° West  Level FlightAware Approximate
11:19AM -34.2928 -62.6376 275° West  Level FlightAware Approximate
11:20AM -34.2842 -62.7456 275° West  Level FlightAware Approximate
11:21AM -34.2756 -62.8535 275° West  Level FlightAware Approximate
11:22AM -34.2669 -62.9615 276° West  Level FlightAware Approximate
11:23AM -34.2581 -63.0694 276° West  Level FlightAware Approximate
11:24AM -34.2492 -63.1773 276° West  Level FlightAware Approximate
11:25AM -34.2402 -63.2852 276° West  Level FlightAware Approximate
11:26AM -34.2311 -63.3931 276° West  Level FlightAware Approximate
11:27AM -34.2219 -63.5009 276° West  Level FlightAware Approximate
11:28AM -34.2126 -63.6088 276° West  Level FlightAware Approximate
11:29AM -34.2033 -63.7165 276° West  Level FlightAware Approximate
11:30AM -34.1938 -63.8243 276° West  Level FlightAware Approximate
11:31AM -34.1842 -63.9321 276° West  Level FlightAware Approximate
11:32AM -34.1746 -64.0398 276° West  Level FlightAware Approximate
11:33AM -34.1648 -64.1475 276° West  Level FlightAware Approximate
11:34AM -34.1550 -64.2552 276° West  Level FlightAware Approximate
11:35AM -34.1450 -64.3628 276° West  Level FlightAware Approximate
11:36AM -34.1350 -64.4704 276° West  Level FlightAware Approximate
11:37AM -34.1249 -64.5780 276° West  Level FlightAware Approximate
11:38AM -34.1147 -64.6856 277° West  Level FlightAware Approximate
11:39AM -34.1043 -64.7931 277° West  Level FlightAware Approximate
11:40AM -34.0939 -64.9007 277° West  Level FlightAware Approximate
11:41AM -34.0834 -65.0081 277° West  Level FlightAware Approximate
11:42AM -34.0728 -65.1156 277° West  Level FlightAware Approximate
11:43AM -34.0621 -65.2230 277° West  Level FlightAware Approximate
11:44AM -34.0513 -65.3305 277° West  Level FlightAware Approximate
11:45AM -34.0405 -65.4378 277° West  Level FlightAware Approximate
11:46AM -34.0295 -65.5452 277° West  Level FlightAware Approximate
11:47AM -34.0184 -65.6525 277° West  Level FlightAware Approximate
11:48AM -34.0073 -65.7598 277° West  Level FlightAware Approximate
11:49AM -33.9960 -65.8671 277° West  Level FlightAware Approximate
11:50AM -33.9847 -65.9743 277° West  Level FlightAware Approximate
11:51AM -33.9733 -66.0815 277° West  Level FlightAware Approximate
11:52AM -33.9617 -66.1887 277° West  Level FlightAware Approximate
11:53AM -33.9501 -66.2959 277° West  Level FlightAware Approximate
11:54AM -33.9384 -66.4030 277° West  Level FlightAware Approximate
11:55AM -33.9266 -66.5101 278° West  Level FlightAware Approximate
11:56AM -33.9147 -66.6172 278° West  Level FlightAware Approximate
11:57AM -33.9027 -66.7242 278° West  Level FlightAware Approximate
11:58AM -33.8906 -66.8312 278° West  Level FlightAware Approximate
11:59AM -33.8784 -66.9382 278° West  Level FlightAware Approximate
12:00PM -33.8662 -67.0451 278° West  Level FlightAware Approximate
12:01PM -33.8538 -67.1520 278° West  Level FlightAware Approximate
12:02PM -33.8414 -67.2589 278° West  Level FlightAware Approximate
12:03PM -33.8288 -67.3658 278° West  Level FlightAware Approximate
12:04PM -33.8162 -67.4726 278° West  Level FlightAware Approximate
12:05PM -33.8034 -67.5794 278° West  Level FlightAware Approximate
12:06PM -33.7906 -67.6861 278° West  Level FlightAware Approximate
12:07PM -33.7777 -67.7928 278° West  Level FlightAware Approximate
12:08PM -33.7635 -67.8992 284° West  Level FlightAware Approximate
12:09PM -33.7452 -68.0047 279° West  Level FlightAware Approximate
12:10PM -33.7318 -68.1113 279° West  Level FlightAware Approximate
12:11PM -33.7182 -68.2178 279° West  Level FlightAware Approximate
12:12PM -33.7046 -68.3243 279° West  Level FlightAware Approximate
12:13PM -33.6909 -68.4308 279° West  Level FlightAware Approximate
12:14PM -33.6770 -68.5372 279° West  Level FlightAware Approximate
12:15PM -33.6667 -68.6440 270° West  Level FlightAware Approximate
12:16PM -33.6607 -68.7512 278° West  Level FlightAware Approximate
12:17PM -33.6482 -68.8578 278° West  Level FlightAware Approximate
12:18PM -33.6356 -68.9644 278° West  Level FlightAware Approximate
12:19PM -33.6189 -69.0702 281° West  Level FlightAware Approximate
12:20PM -33.6014 -69.1757 281° West  Level FlightAware Approximate
12:21PM -33.5837 -69.2812 281° West  Level FlightAware Approximate
12:22PM -33.5709 -69.3877 278° West  Level FlightAware Approximate
12:23PM -33.5581 -69.4941 278° West  Level FlightAware Approximate
12:24PM -33.5452 -69.6006 278° West  Level FlightAware Approximate
12:25PM -33.5322 -69.7070 278° West  Level FlightAware Approximate
12:26PM -33.5191 -69.8134 278° West  Level FlightAware Approximate
12:27PM -33.5024 -69.9190 281° West  Level FlightAware Approximate
12:28PM -33.4848 -70.0244 281° West  Level FlightAware Approximate
12:29PM -33.4705 -70.1304 279° West  Level FlightAware Approximate
12:30PM -33.4563 -70.2365 279° West  Level FlightAware Approximate
12:31PM -33.4402 -70.3422 281° West  Level FlightAware Approximate
12:32PM -33.4227 -70.4475 281° West  Level FlightAware Approximate
12:33PM -33.4102 -70.5527 292° West  Level FlightAware Approximate
12:34PM -33.3879 -70.6563 281° West  Level FlightAware Approximate
12:35PM -33.3833 -70.7631 270° West  Level FlightAware Approximate
12:36PM -33.3833 -70.7667 270° West  Level FlightAware Approximate
12:37PM -33.3930 -70.7858 270° West  Level Estimated
12:38PM -33.3930 -70.7858 270° West  Level Estimated
12:39PM -33.3930 -70.7858 270° West  Level Estimated
12:40PM -33.3930 -70.7858 270° West  Level Estimated
12:41PM -33.3930 -70.7858 270° West  Level Estimated
12:42PM -33.3930 -70.7858 270° West  Level Estimated
12:43PM -33.3930 -70.7858 270° West  Level Estimated
12:44PM -33.3930 -70.7858 270° West  Level Estimated
12:45PM -33.3930 -70.7858 270° West  Level Estimated
12:46PM -33.3930 -70.7858 270° West  Level Estimated
12:47PM -33.3930 -70.7858 270° West  Level Estimated
12:48PM -33.3930 -70.7858 270° West  Level Estimated